createdAt,value
2023-04-20T16:12:12.869Z,100757.09
2023-04-20T16:17:17.206Z,100753.97
2023-04-20T16:22:21.253Z,100753.16
2023-04-20T16:27:27.471Z,100741.25
2023-04-20T16:32:31.754Z,100740.44
2023-04-20T16:37:36.253Z,100744.84
2023-04-20T16:42:42.400Z,100746.75
2023-04-20T16:47:46.578Z,100751.34
2023-04-20T16:52:50.784Z,100758.47
2023-04-20T16:57:59.738Z,100768.41
2023-04-20T17:03:06.298Z,100774.31
2023-04-20T17:08:10.610Z,100773.31
2023-04-20T17:13:16.989Z,100779.72
2023-04-20T17:18:21.351Z,100800.84
2023-04-20T17:23:25.882Z,100810.06
2023-04-20T17:28:32.176Z,100830.25
2023-04-20T17:33:36.317Z,100833.25
2023-04-20T17:38:40.295Z,100824.09
2023-04-20T17:43:46.273Z,100831.06
2023-04-20T17:48:50.445Z,100843.97
2023-04-20T17:53:54.578Z,100855.16
2023-04-20T17:59:00.710Z,100862.13
2023-04-20T18:04:05.066Z,100876.16
2023-04-20T18:09:09.700Z,100863.63
2023-04-20T18:14:15.842Z,100869.75
2023-04-20T18:19:19.903Z,100861.41
2023-04-20T18:24:24.170Z,100874.34
2023-04-20T18:29:30.802Z,100868.38
2023-04-20T18:34:34.910Z,100869.31
2023-04-20T18:39:39.170Z,100867.63
2023-04-20T18:44:45.431Z,100871.91
2023-04-20T18:49:49.530Z,100866.00
2023-04-20T18:54:54.876Z,100876.34
2023-04-20T19:00:01.157Z,100879.75
2023-04-20T19:05:05.599Z,100874.66
2023-04-20T19:10:11.752Z,100871.25
2023-04-20T19:15:24.739Z,100866.19
2023-04-20T19:20:29.070Z,100860.22
2023-04-20T19:25:33.595Z,100861.97
2023-04-20T19:30:39.774Z,100850.81
2023-04-20T19:35:49.922Z,100852.53
2023-04-20T19:40:54.782Z,100845.66
2023-04-20T19:46:00.927Z,100831.06
2023-04-20T19:51:06.269Z,100833.66
2023-04-20T19:56:10.737Z,100821.72
2023-04-20T20:01:16.868Z,100815.69
2023-04-20T20:06:21.251Z,100816.63
2023-04-20T20:11:25.279Z,100833.78
2023-04-20T20:16:31.337Z,100836.41
2023-04-20T20:21:35.469Z,100830.41
2023-04-20T20:26:39.523Z,100841.50
2023-04-20T20:31:45.667Z,100837.22
2023-04-20T20:36:50.868Z,100856.94
2023-04-20T20:41:56.702Z,100858.69
2023-04-20T20:47:03.004Z,100863.91
2023-04-20T20:52:07.936Z,100870.81
2023-04-20T20:57:12.455Z,100877.69
2023-04-20T21:02:19.051Z,100866.75
2023-04-20T21:07:23.400Z,100849.75
2023-04-20T21:12:27.558Z,100854.91
